createdAt,value
2019-01-27T14:50:14.658Z,58.00
2019-01-27T14:52:20.089Z,46.50
2019-01-27T14:54:24.426Z,44.00
2019-01-27T14:56:32.134Z,50.50
2019-01-27T14:58:39.066Z,55.56
2019-01-27T15:00:47.631Z,49.38
2019-01-27T15:02:51.766Z,45.50
2019-01-27T15:04:55.282Z,48.33
2019-01-27T15:07:03.979Z,57.88
2019-01-27T15:09:08.178Z,44.25
2019-01-27T15:11:16.522Z,38.25
2019-01-27T15:13:24.846Z,46.13
2019-01-27T15:15:33.436Z,47.13
2019-01-27T15:17:37.347Z,48.25
2019-01-27T15:19:41.500Z,47.00
2019-01-27T15:21:45.688Z,48.50
2019-01-27T15:23:48.773Z,43.00
2019-01-27T15:25:54.800Z,45.88
2019-01-27T15:27:57.898Z,50.67
2019-01-27T15:30:07.990Z,46.88
2019-01-27T15:32:12.318Z,48.25
2019-01-27T15:34:20.704Z,54.50
2019-01-27T15:36:24.092Z,55.33
2019-01-27T15:38:28.226Z,50.00
2019-01-27T15:40:34.258Z,49.63
2019-01-27T15:42:43.150Z,52.00
2019-01-27T15:44:46.985Z,49.00
2019-01-27T15:46:55.561Z,55.00
2019-01-27T15:48:58.862Z,55.00
2019-01-27T15:51:09.005Z,52.64
2019-01-27T15:53:13.054Z,54.75
2019-01-27T15:55:21.559Z,51.75
2019-01-27T15:57:29.903Z,57.62
2019-01-27T15:59:34.177Z,49.25
2019-01-27T16:01:39.286Z,49.00
2019-01-27T16:03:43.552Z,53.75
2019-01-27T16:05:47.762Z,50.50
2019-01-27T16:07:53.903Z,56.63
2019-01-27T16:09:57.441Z,51.00
2019-01-27T16:12:04.690Z,47.75
2019-01-27T16:14:08.874Z,48.00
2019-01-27T16:16:12.286Z,50.00
2019-01-27T16:18:20.711Z,52.50
2019-01-27T16:20:24.409Z,51.67
2019-01-27T16:22:27.972Z,55.33
2019-01-27T16:24:37.981Z,54.55
2019-01-27T16:26:41.374Z,50.67
2019-01-27T16:28:49.690Z,56.75
2019-01-27T16:30:58.211Z,56.13
2019-01-27T16:33:02.360Z,60.00
2019-01-27T16:35:11.157Z,56.37
2019-01-27T16:37:17.760Z,55.25
2019-01-27T16:39:21.413Z,56.33
2019-01-27T16:41:29.066Z,55.43
2019-01-27T16:43:33.215Z,60.00
2019-01-27T16:45:36.117Z,57.00
2019-01-27T16:47:40.298Z,56.00
2019-01-27T16:49:48.191Z,62.00
2019-01-27T16:51:52.313Z,54.50
2019-01-27T16:53:56.549Z,55.25
2019-01-27T16:56:00.110Z,54.33
2019-01-27T16:58:07.804Z,53.29
2019-01-27T17:00:23.226Z,56.57
2019-01-27T17:02:30.574Z,58.43
2019-01-27T17:04:37.250Z,54.63
2019-01-27T17:06:40.730Z,53.33
2019-01-27T17:08:49.105Z,53.38
2019-01-27T17:10:53.281Z,53.25
2019-01-27T17:12:57.398Z,54.00
2019-01-27T17:15:01.686Z,53.75
2019-01-27T17:17:09.358Z,49.38
2019-01-27T17:19:17.705Z,47.00
2019-01-27T17:21:26.079Z,53.00
2019-01-27T17:23:32.122Z,61.13
2019-01-27T17:25:41.414Z,62.22
2019-01-27T17:27:49.859Z,58.87
2019-01-27T17:29:55.707Z,57.00
2019-01-27T17:32:04.342Z,57.75
2019-01-27T17:34:12.610Z,61.75
2019-01-27T17:36:21.711Z,58.75
2019-01-27T17:38:25.904Z,58.00
2019-01-27T17:40:34.666Z,61.63
2019-01-27T17:42:41.555Z,64.62
2019-01-27T17:44:49.863Z,56.37
2019-01-27T17:46:58.251Z,62.75
2019-01-27T17:52:14.955Z,65.00
2019-01-27T17:54:22.646Z,70.25
2019-01-27T17:56:29.567Z,68.12
2019-01-27T17:58:38.786Z,68.00
2019-01-27T18:00:47.237Z,67.62
2019-01-27T18:02:55.690Z,65.00
2019-01-27T18:05:04.606Z,69.89
2019-01-27T18:07:14.335Z,67.00
2019-01-27T18:09:22.751Z,69.87
2019-01-27T18:11:30.266Z,67.11
2019-01-27T18:13:40.322Z,69.50
2019-01-27T18:15:48.847Z,66.75
2019-01-27T18:17:57.430Z,66.25
2019-01-27T18:20:05.687Z,67.87
2019-01-27T18:22:09.991Z,66.00
2019-01-27T18:24:20.797Z,67.00
2019-01-27T18:26:30.474Z,70.67
2019-01-27T18:28:34.775Z,62.00
2019-01-27T18:30:43.286Z,63.38
2019-01-27T18:32:48.455Z,69.50
2019-01-27T18:34:55.256Z,66.50
2019-01-27T18:37:02.082Z,70.37
2019-01-27T18:39:08.155Z,64.33
2019-01-27T18:41:14.702Z,66.12
2019-01-27T18:43:22.214Z,67.11
2019-01-27T18:45:30.665Z,65.25
2019-01-27T18:47:39.077Z,60.75
2019-01-27T18:49:43.259Z,61.50
2019-01-27T18:51:54.007Z,62.17
2019-01-27T18:54:02.510Z,61.50
2019-01-27T18:56:10.562Z,54.71
2019-01-27T18:58:17.767Z,59.75
2019-01-27T19:00:21.722Z,51.00
2019-01-27T19:02:29.927Z,60.88
2019-01-27T19:04:38.214Z,55.38
2019-01-27T19:06:45.036Z,57.25
2019-01-27T19:08:53.306Z,58.50
2019-01-27T19:11:00.772Z,68.44
2019-01-27T19:13:09.411Z,70.75
2019-01-27T19:15:17.062Z,77.00
2019-01-27T19:17:23.962Z,74.12
2019-01-27T19:19:31.622Z,74.78
2019-01-27T19:21:38.580Z,76.12
2019-01-27T19:23:47.145Z,72.75
2019-01-27T19:25:58.143Z,72.67
2019-01-27T19:28:07.323Z,69.44
2019-01-27T19:30:17.096Z,67.62
2019-01-27T19:32:24.305Z,67.37
2019-01-27T19:34:29.033Z,69.25
2019-01-27T19:36:37.863Z,71.62
2019-01-27T19:38:46.386Z,68.12
2019-01-27T19:40:50.641Z,69.50
2019-01-27T19:42:57.595Z,70.00
2019-01-27T19:45:07.486Z,71.62
2019-01-27T19:47:16.023Z,73.25
2019-01-27T19:49:22.790Z,68.12
2019-01-27T19:51:29.562Z,72.37
2019-01-27T19:53:38.119Z,70.87
2019-01-27T19:55:47.358Z,76.00
2019-01-27T19:57:54.923Z,72.22
2019-01-27T20:00:03.972Z,75.11
2019-01-27T20:02:13.380Z,77.33
2019-01-27T20:04:17.619Z,78.33
2019-01-27T20:06:26.259Z,75.00
2019-01-27T20:08:33.751Z,75.00
2019-01-27T20:10:41.626Z,76.11
2019-01-27T20:12:49.019Z,75.33
2019-01-27T20:14:56.483Z,79.67
2019-01-27T20:17:06.455Z,89.89
2019-01-27T20:19:16.533Z,92.33
2019-01-27T20:21:25.094Z,88.80
2019-01-27T20:23:32.462Z,78.22
2019-01-27T20:25:43.402Z,82.70
2019-01-27T20:27:48.696Z,79.50
2019-01-27T20:29:57.268Z,79.30
2019-01-27T20:32:06.411Z,77.25
2019-01-27T20:34:15.820Z,75.37
2019-01-27T20:36:23.206Z,82.56
2019-01-27T20:38:30.856Z,72.89
2019-01-27T20:40:41.059Z,79.11
2019-01-27T20:42:44.486Z,92.50
2019-01-27T20:44:52.971Z,87.80
2019-01-27T20:47:04.067Z,89.60
2019-01-27T20:49:09.175Z,86.00
2019-01-27T20:51:16.958Z,81.44
2019-01-27T20:53:27.160Z,86.89
2019-01-27T20:55:34.712Z,78.67
2019-01-27T20:57:44.995Z,87.80
2019-01-27T20:59:54.512Z,78.00
2019-01-27T21:02:01.292Z,84.80
2019-01-27T21:04:12.346Z,87.10
2019-01-27T21:06:18.146Z,90.71
2019-01-27T21:08:28.328Z,83.22
2019-01-27T21:10:38.818Z,79.33
2019-01-27T21:12:49.903Z,92.10
2019-01-27T21:14:58.129Z,78.33
2019-01-27T21:17:06.134Z,78.00
2019-01-27T21:19:16.834Z,81.30
2019-01-27T21:21:25.805Z,82.30
2019-01-27T21:23:30.582Z,77.75
2019-01-27T21:25:40.622Z,81.11
2019-01-27T21:27:51.284Z,84.40
2019-01-27T21:29:59.447Z,81.50
2019-01-27T21:32:06.870Z,84.78
2019-01-27T21:34:12.559Z,85.00
2019-01-27T21:36:18.215Z,82.75
2019-01-27T21:38:27.216Z,81.50
2019-01-27T21:40:34.651Z,80.78
2019-01-27T21:42:47.427Z,82.00
2019-01-27T21:44:57.579Z,85.30
2019-01-27T21:47:07.642Z,84.67
2019-01-27T21:49:13.222Z,80.00
2019-01-27T21:51:23.693Z,85.56
2019-01-27T21:53:33.799Z,97.56
2019-01-27T21:55:44.036Z,77.33
2019-01-27T21:57:49.317Z,89.75
2019-01-27T22:00:00.322Z,107.30
2019-01-27T22:02:05.378Z,102.29
2019-01-27T22:04:11.458Z,80.75
2019-01-27T22:06:19.235Z,89.78
2019-01-27T22:08:31.185Z,109.00
2019-01-27T22:10:40.098Z,90.56
2019-01-27T22:12:50.913Z,88.50
2019-01-27T22:14:59.949Z,92.10
2019-01-27T22:17:05.592Z,97.00
2019-01-27T22:19:16.583Z,103.10
2019-01-27T22:21:22.203Z,94.50
2019-01-27T22:23:33.904Z,99.18
2019-01-27T22:25:43.991Z,91.56
2019-01-27T22:27:51.990Z,96.87
2019-01-27T22:30:04.494Z,88.20
2019-01-27T22:32:12.122Z,83.67
2019-01-27T22:34:21.185Z,90.90
2019-01-27T22:36:26.906Z,95.25
2019-01-27T22:38:30.971Z,93.50
2019-01-27T22:40:39.758Z,104.67
2019-01-27T22:42:52.399Z,114.00
2019-01-27T22:45:01.954Z,138.75
2019-01-27T22:47:12.751Z,95.00
2019-01-27T22:49:23.398Z,99.40
2019-01-27T22:51:27.452Z,110.00
2019-01-27T22:53:33.031Z,102.86
2019-01-27T22:55:43.866Z,99.20
2019-01-27T22:57:54.768Z,102.70
2019-01-27T23:00:23.581Z,100.44
2019-01-27T23:02:33.755Z,93.44
2019-01-27T23:04:44.506Z,96.50
2019-01-27T23:06:50.223Z,87.00
2019-01-27T23:09:00.995Z,95.00
2019-01-27T23:11:11.689Z,90.80
2019-01-27T23:13:20.816Z,93.30
2019-01-27T23:15:31.514Z,92.00
2019-01-27T23:17:35.541Z,91.80
2019-01-27T23:19:45.539Z,87.00
2019-01-27T23:21:56.275Z,87.30
2019-01-27T23:24:00.439Z,117.00
2019-01-27T23:26:04.688Z,103.00
2019-01-27T23:28:10.415Z,102.00
2019-01-27T23:30:18.691Z,94.30
2019-01-27T23:32:28.803Z,87.56
2019-01-27T23:34:37.122Z,70.00
2019-01-27T23:36:45.540Z,70.37
2019-01-27T23:38:54.596Z,60.33
2019-01-27T23:41:01.836Z,64.00
2019-01-27T23:43:09.026Z,70.33
2019-01-27T23:45:13.146Z,53.00
2019-01-27T23:47:16.791Z,55.75
2019-01-27T23:49:25.003Z,60.25
2019-01-27T23:51:31.534Z,62.00
2019-01-27T23:53:37.960Z,62.62
2019-01-27T23:55:45.282Z,66.44
2019-01-27T23:57:52.758Z,64.67
